EGNS/IOM METAR and TAF weather

Enter ICAO airport designator
Station Type Date Time Source
EGNS METAR 2021/04/14 19:50 UTC NOAA

EGNS 141950Z VRB03KT 9999 FEW040 07/03 Q1033


Station Type Date Time Source
EGNS Decoded METAR 2021/04/14 19:50 UTC NOAA

Isle Of Man / Ronaldsway Airport, United Kingdom (EGNS) 54-05N 004-38W 0M
Apr 14, 2021 - 03:50 PM EDT / 2021.04.14 1950 UTC
Wind: Variable at 3 MPH (3 KT):0
Visibility: greater than 7 mile(s):0
Sky conditions: mostly clear
Temperature: 44 F (7 C)
Dew Point: 37 F (3 C)
Relative Humidity: 75%
Pressure (altimeter): 30.50 in. Hg (1033 hPa)
ob: EGNS 141950Z VRB03KT 9999 FEW040 07/03 Q1033
cycle: 20

Station Type Date Time Source
EGNS TAF 2019/01/16 05:00 UTC NOAA

TAF EGNS 160500 Z 1606/1615 28020KT 9999 FEW010 BKN025
TEMPO 1606/1609 6000 RA BKN010 PROB30
TEMPO 1613/1615 7000 -SHRA

Example: see airport list